Time;durP1;ratioP1;P1;durP2;ratioP2;P2;SDS_P1;SDS_P2;PMS_P1;PMS_P2;Temp;Humidity;BMP_temperature;BMP_pressure;BME280_temperature;BME280_humidity;BME280_pressure;Samples;Min_cycle;Max_cycle;Signal;HPM_P1;HPM_P2
2021/07/25 00:00:58;;;;;;;7.47;2.05;;;23.90;93.60;;;;;;4247648;28;20402;-74
2021/07/25 00:03:02;;;;;;;5.72;2.10;;;23.80;93.70;;;;;;4247184;28;20130;-75
2021/07/25 00:05:07;;;;;;;6.03;2.55;;;23.90;93.80;;;;;;4247940;28;20075;-75
2021/07/25 00:07:10;;;;;;;;;;;23.90;94.10;;;;;;4248722;28;20047;-75
2021/07/25 00:09:14;;;;;;;6.57;2.20;;;23.80;93.90;;;;;;4246612;28;20372;-73
2021/07/25 00:11:18;;;;;;;4.40;2.53;;;23.90;93.60;;;;;;4228295;28;20051;-75
2021/07/25 00:13:21;;;;;;;7.05;2.33;;;23.90;93.70;;;;;;4246215;28;20055;-74
2021/07/25 00:15:24;;;;;;;4.18;2.30;;;24.00;94.10;;;;;;4247745;28;20057;-74
2021/07/25 00:17:27;;;;;;;4.88;2.15;;;23.70;94.60;;;;;;4248981;28;20057;-75
2021/07/25 00:19:31;;;;;;;9.13;2.10;;;23.60;94.60;;;;;;4249560;28;20385;-75
2021/07/25 00:21:34;;;;;;;5.15;2.38;;;23.70;94.30;;;;;;4249292;28;20055;-75
2021/07/25 00:23:42;;;;;;;6.80;2.13;;;23.80;94.40;;;;;;4246608;28;20047;-74
2021/07/25 00:25:48;;;;;;;8.75;2.20;;;23.70;94.80;;;;;;4247568;27;20527;-76
2021/07/25 00:27:52;;;;;;;4.97;2.20;;;23.50;95.10;;;;;;4249212;27;20059;-74
2021/07/25 00:29:55;;;;;;;10.15;2.63;;;23.30;95.40;;;;;;4249872;27;20517;-75
2021/07/25 00:31:59;;;;;;;6.30;2.25;;;23.30;95.60;;;;;;4250758;27;20059;-76
2021/07/25 00:34:03;;;;;;;7.80;2.40;;;23.20;95.90;;;;;;4250442;27;20051;-75
2021/07/25 00:36:06;;;;;;;15.65;4.07;;;23.20;95.60;;;;;;4249513;27;20418;-75
2021/07/25 00:38:10;;;;;;;5.03;2.47;;;23.20;95.90;;;;;;4251607;27;20059;-75
2021/07/25 00:40:19;;;;;;;7.32;2.25;;;23.10;96.00;;;;;;4254103;27;20059;-75
2021/07/25 00:42:23;;;;;;;11.35;2.15;;;23.20;95.90;;;;;;4235457;28;20051;-74
2021/07/25 00:44:27;;;;;;;6.28;2.28;;;23.20;95.90;;;;;;4255239;27;20107;-76
2021/07/25 00:46:30;;;;;;;9.85;2.22;;;22.90;96.20;;;;;;4256274;27;20181;-73
2021/07/25 00:48:35;;;;;;;7.07;2.55;;;22.90;96.60;;;;;;4237529;28;20075;-74
2021/07/25 00:50:40;;;;;;;5.80;2.13;;;22.90;96.80;;;;;;4237847;28;20052;-73
2021/07/25 00:52:43;;;;;;;7.35;2.53;;;22.90;96.60;;;;;;4253326;27;20065;-74
2021/07/25 00:54:46;;;;;;;5.22;2.13;;;22.90;96.70;;;;;;4253143;27;20566;-76
2021/07/25 00:56:49;;;;;;;6.63;2.25;;;23.00;96.70;;;;;;4252198;27;20058;-74
2021/07/25 00:58:53;;;;;;;4.57;2.17;;;23.00;96.50;;;;;;4252436;27;20055;-74
2021/07/25 01:00:57;;;;;;;6.85;1.95;;;23.00;96.50;;;;;;4251972;27;20205;-74
2021/07/25 01:03:11;;;;;;;5.32;2.10;;;23.00;96.30;;;;;;4249198;27;20058;-75
2021/07/25 01:05:19;;;;;;;6.25;2.13;;;23.10;96.40;;;;;;4248046;27;20047;-74
2021/07/25 01:07:32;;;;;;;5.32;2.08;;;23.10;96.40;;;;;;4248172;27;20061;-73
2021/07/25 01:09:42;;;;;;;8.38;2.67;;;23.20;96.10;;;;;;4249824;27;20070;-74
2021/07/25 01:11:47;;;;;;;5.38;2.03;;;23.20;96.10;;;;;;4249018;27;20051;-73
2021/07/25 01:13:51;;;;;;;;;;;23.20;96.10;;;;;;4249292;27;20106;-75
2021/07/25 01:15:57;;;;;;;6.20;1.75;;;23.00;96.60;;;;;;4253846;27;20018;-76
2021/07/25 01:18:00;;;;;;;4.93;2.03;;;22.90;96.60;;;;;;4249220;27;20062;-75
2021/07/25 01:20:07;;;;;;;6.30;2.10;;;23.00;96.60;;;;;;4248601;27;20135;-75
2021/07/25 01:22:10;;;;;;;8.80;2.10;;;23.00;96.30;;;;;;4254186;27;20478;-74
2021/07/25 01:24:13;;;;;;;6.43;2.20;;;23.10;96.30;;;;;;4252524;27;20051;-74
2021/07/25 01:26:23;;;;;;;9.48;2.67;;;23.20;95.90;;;;;;4249944;27;20130;-74
2021/07/25 01:28:31;;;;;;;5.63;2.28;;;23.10;96.20;;;;;;4251164;27;20155;-74
2021/07/25 01:30:37;;;;;;;4.88;2.15;;;22.90;96.50;;;;;;4249898;27;20066;-75
2021/07/25 01:32:42;;;;;;;5.75;1.90;;;22.90;96.60;;;;;;4248737;27;20057;-74
2021/07/25 01:34:44;;;;;;;;;;;22.90;97.00;;;;;;4249574;27;20081;-74
2021/07/25 01:36:49;;;;;;;5.15;2.28;;;23.00;96.60;;;;;;4248408;27;19919;-74
2021/07/25 01:38:53;;;;;;;6.03;1.98;;;22.90;96.80;;;;;;4230329;28;20069;-74
2021/07/25 01:41:04;;;;;;;9.63;2.53;;;22.90;96.70;;;;;;4249057;27;20516;-75
2021/07/25 01:43:10;;;;;;;3.92;2.30;;;22.70;97.20;;;;;;4247395;27;20632;-75
2021/07/25 01:45:13;;;;;;;5.22;2.15;;;22.70;97.50;;;;;;4229236;28;20051;-74
2021/07/25 01:47:16;;;;;;;4.85;1.80;;;22.70;97.50;;;;;;4246516;27;20130;-74
2021/07/25 01:49:19;;;;;;;7.55;2.50;;;22.80;97.20;;;;;;4247328;27;20047;-73
2021/07/25 01:51:22;;;;;;;7.78;2.53;;;22.80;97.50;;;;;;4247210;27;20599;-75
2021/07/25 01:53:26;;;;;;;7.13;2.70;;;22.90;97.10;;;;;;4248079;27;20404;-74
2021/07/25 01:55:29;;;;;;;7.20;2.50;;;22.90;97.60;;;;;;4229373;28;20062;-74
2021/07/25 01:57:33;;;;;;;8.07;2.35;;;22.90;97.40;;;;;;4247797;27;20134;-74
2021/07/25 01:59:36;;;;;;;6.70;2.40;;;22.90;97.50;;;;;;4247454;27;20129;-75
2021/07/25 02:01:40;;;;;;;6.50;2.38;;;22.80;97.90;;;;;;4247098;27;20055;-74
2021/07/25 02:03:43;;;;;;;10.63;2.97;;;22.70;98.20;;;;;;4246702;27;20047;-75
2021/07/25 02:05:46;;;;;;;4.65;2.10;;;22.70;98.00;;;;;;4228942;28;20140;-75
2021/07/25 02:07:49;;;;;;;5.82;2.67;;;22.60;98.40;;;;;;4246883;27;20051;-75
2021/07/25 02:09:54;;;;;;;6.07;2.25;;;22.60;98.40;;;;;;4246892;27;20050;-74
2021/07/25 02:11:57;;;;;;;5.72;2.45;;;22.60;98.30;;;;;;4246884;27;20424;-74
2021/07/25 02:14:00;;;;;;;7.03;2.85;;;22.60;98.40;;;;;;4246802;27;20407;-74
2021/07/25 02:16:03;;;;;;;8.05;2.38;;;22.60;98.30;;;;;;4246855;27;20587;-74
2021/07/25 02:18:07;;;;;;;7.03;2.85;;;22.60;98.10;;;;;;4247260;27;20081;-74
2021/07/25 02:20:10;;;;;;;6.88;2.60;;;22.60;98.70;;;;;;4246090;27;20051;-74
2021/07/25 02:22:14;;;;;;;6.07;2.50;;;22.60;98.30;;;;;;4246560;27;20408;-74
2021/07/25 02:24:19;;;;;;;9.48;3.05;;;22.70;98.10;;;;;;4228064;27;20698;-75
2021/07/25 02:26:24;;;;;;;7.18;2.63;;;22.60;98.30;;;;;;4246312;27;20055;-74
2021/07/25 02:28:27;;;;;;;4.38;2.70;;;22.50;98.20;;;;;;4228668;28;20065;-76
2021/07/25 02:30:30;;;;;;;8.27;2.90;;;22.40;98.60;;;;;;4247496;27;20061;-73
2021/07/25 02:32:33;;;;;;;8.20;2.83;;;22.50;98.60;;;;;;4246416;27;20508;-74
2021/07/25 02:34:36;;;;;;;5.47;2.47;;;22.40;98.70;;;;;;4246873;27;20062;-76
2021/07/25 02:36:39;;;;;;;8.65;3.05;;;22.40;98.80;;;;;;4246880;27;20062;-74
2021/07/25 02:38:42;;;;;;;10.25;2.90;;;22.30;98.80;;;;;;4246999;27;20115;-74
2021/07/25 02:40:45;;;;;;;8.52;2.58;;;22.30;98.90;;;;;;4229082;28;20570;-73
2021/07/25 02:42:50;;;;;;;6.63;2.75;;;22.20;99.10;;;;;;4228435;28;20058;-74
2021/07/25 02:44:53;;;;;;;6.30;2.30;;;22.20;99.50;;;;;;4246828;27;20143;-74
2021/07/25 02:46:56;;;;;;;4.63;2.78;;;22.20;99.40;;;;;;4246415;27;20055;-74
2021/07/25 02:48:59;;;;;;;5.80;2.67;;;22.20;99.10;;;;;;4245536;27;20069;-76
2021/07/25 02:51:02;;;;;;;5.32;2.40;;;22.20;99.30;;;;;;4245726;27;20085;-74
2021/07/25 02:53:05;;;;;;;7.38;2.75;;;22.30;99.40;;;;;;4246933;27;20058;-74
2021/07/25 02:55:09;;;;;;;7.72;2.95;;;22.30;99.40;;;;;;4248541;27;20130;-76
2021/07/25 02:57:12;;;;;;;7.83;2.73;;;22.30;99.40;;;;;;4248352;27;20513;-74
2021/07/25 02:59:16;;;;;;;7.57;2.70;;;22.30;99.60;;;;;;4246711;27;20144;-75
2021/07/25 03:01:19;;;;;;;7.88;2.67;;;22.40;99.60;;;;;;4246349;27;20069;-75
2021/07/25 03:03:23;;;;;;;5.53;2.83;;;22.40;99.50;;;;;;4247298;27;20061;-75
2021/07/25 03:05:26;;;;;;;6.20;2.78;;;22.40;99.80;;;;;;4247604;27;20077;-75
2021/07/25 03:07:29;;;;;;;7.20;2.60;;;22.30;99.70;;;;;;4247388;27;20047;-76
2021/07/25 03:09:32;;;;;;;10.30;3.10;;;22.30;99.90;;;;;;4246339;27;20061;-75
2021/07/25 03:11:35;;;;;;;10.32;3.22;;;22.20;99.90;;;;;;4245720;27;20053;-75
2021/07/25 03:13:38;;;;;;;7.40;3.05;;;22.30;99.90;;;;;;4245930;28;20055;-75
2021/07/25 03:15:43;;;;;;;6.38;3.00;;;22.40;99.90;;;;;;4245599;28;20051;-74
2021/07/25 03:17:47;;;;;;;7.43;3.03;;;22.30;99.90;;;;;;4245922;28;20154;-73
2021/07/25 03:19:50;;;;;;;8.02;3.00;;;22.40;99.90;;;;;;4245959;28;20055;-74
2021/07/25 03:21:53;;;;;;;12.95;3.50;;;22.30;99.90;;;;;;4245912;28;20406;-74
2021/07/25 03:23:56;;;;;;;7.75;3.17;;;22.40;99.90;;;;;;4245746;28;20385;-75
2021/07/25 03:25:59;;;;;;;8.25;3.10;;;22.20;99.90;;;;;;4249450;28;20065;-74
2021/07/25 03:28:02;;;;;;;8.25;2.92;;;22.20;99.90;;;;;;4248189;28;20059;-75
2021/07/25 03:30:06;;;;;;;7.18;3.40;;;22.10;99.90;;;;;;4245825;28;20055;-75
2021/07/25 03:32:12;;;;;;;8.18;3.47;;;22.00;99.90;;;;;;4245898;28;20051;-75
2021/07/25 03:34:15;;;;;;;5.32;3.33;;;22.00;99.90;;;;;;4245924;28;20051;-76
2021/07/25 03:36:18;;;;;;;8.00;3.22;;;22.10;99.90;;;;;;4245852;28;20055;-75
2021/07/25 03:38:21;;;;;;;10.30;3.85;;;22.30;99.90;;;;;;4246157;28;20058;-75
2021/07/25 03:40:24;;;;;;;9.00;3.00;;;22.20;99.90;;;;;;4248712;28;20559;-74
2021/07/25 03:42:27;;;;;;;6.68;3.10;;;22.20;99.90;;;;;;4250876;28;20051;-74
2021/07/25 03:44:31;;;;;;;8.65;3.08;;;22.20;99.90;;;;;;4252344;28;20043;-75
2021/07/25 03:46:35;;;;;;;10.15;3.28;;;22.20;99.90;;;;;;4251279;28;20071;-75
2021/07/25 03:48:40;;;;;;;10.55;3.55;;;22.30;99.90;;;;;;4252578;28;20089;-76
2021/07/25 03:50:43;;;;;;;8.52;3.05;;;22.30;99.90;;;;;;4248434;28;20175;-75
2021/07/25 03:52:47;;;;;;;7.65;3.15;;;22.30;99.90;;;;;;4248319;28;20051;-75
2021/07/25 03:54:50;;;;;;;8.45;3.22;;;22.30;99.90;;;;;;4248343;27;20061;-74
2021/07/25 03:56:53;;;;;;;7.50;3.05;;;22.20;99.90;;;;;;4247978;28;20116;-74
2021/07/25 03:58:56;;;;;;;7.20;3.15;;;22.30;99.90;;;;;;4248282;28;20653;-73
2021/07/25 04:00:59;;;;;;;7.05;2.75;;;22.40;99.90;;;;;;4250567;27;20545;-74
2021/07/25 04:03:02;;;;;;;8.68;3.15;;;22.40;99.90;;;;;;4250437;27;20051;-74
2021/07/25 04:05:08;;;;;;;6.55;3.28;;;22.30;99.90;;;;;;4250004;27;20051;-74
2021/07/25 04:07:11;;;;;;;5.88;2.90;;;22.30;99.90;;;;;;4250791;27;20055;-74
2021/07/25 04:09:14;;;;;;;10.48;3.90;;;22.40;99.90;;;;;;4250197;27;20058;-76
2021/07/25 04:11:18;;;;;;;5.70;2.90;;;22.30;99.90;;;;;;4248910;27;20066;-75
2021/07/25 04:13:21;;;;;;;5.38;3.00;;;22.30;99.90;;;;;;4248885;27;20051;-73
2021/07/25 04:15:24;;;;;;;6.90;2.90;;;22.30;99.90;;;;;;4250662;27;20077;-76
2021/07/25 04:17:28;;;;;;;5.63;2.90;;;22.20;99.90;;;;;;4250811;27;20059;-75
2021/07/25 04:19:31;;;;;;;8.07;3.27;;;22.10;99.90;;;;;;4249178;27;20058;-74
2021/07/25 04:21:35;;;;;;;6.43;2.85;;;22.20;99.90;;;;;;4248556;27;20057;-75
2021/07/25 04:23:39;;;;;;;12.50;2.83;;;22.30;99.90;;;;;;4248390;27;20047;-74
2021/07/25 04:25:42;;;;;;;7.68;3.10;;;22.30;99.90;;;;;;4248728;27;20035;-75
2021/07/25 04:27:46;;;;;;;7.20;2.63;;;22.20;99.90;;;;;;4248522;27;20062;-74
2021/07/25 04:29:49;;;;;;;4.55;2.85;;;22.10;99.90;;;;;;4248343;27;20047;-74
2021/07/25 04:31:53;;;;;;;7.05;3.50;;;22.10;99.90;;;;;;4248289;27;20495;-75
2021/07/25 04:33:56;;;;;;;6.20;3.10;;;22.10;99.90;;;;;;4248194;27;20051;-75
2021/07/25 04:36:00;;;;;;;5.22;3.30;;;22.10;99.90;;;;;;4230223;28;20389;-75
2021/07/25 04:38:05;;;;;;;7.78;3.20;;;22.10;99.90;;;;;;4247955;27;20411;-75
2021/07/25 04:40:10;;;;;;;4.63;3.17;;;22.00;99.90;;;;;;4248191;27;20059;-73
2021/07/25 04:42:16;;;;;;;5.80;3.08;;;22.10;99.90;;;;;;4247747;27;20078;-76
2021/07/25 04:44:27;;;;;;;6.53;3.47;;;22.20;99.90;;;;;;4247662;27;20047;-74
2021/07/25 04:46:33;;;;;;;7.90;3.95;;;22.20;99.90;;;;;;4247952;27;20057;-75
2021/07/25 04:48:44;;;;;;;9.32;3.53;;;22.00;99.90;;;;;;4247999;27;20054;-75
2021/07/25 04:50:52;;;;;;;8.18;4.00;;;22.00;99.90;;;;;;4248107;27;20055;-76
2021/07/25 04:53:00;;;;;;;12.30;3.72;;;22.00;99.90;;;;;;4248159;27;20059;-76
2021/07/25 04:55:06;;;;;;;13.60;4.05;;;22.00;99.90;;;;;;4247760;27;20052;-74
2021/07/25 04:57:17;;;;;;;6.65;3.47;;;22.00;99.90;;;;;;4212776;28;20062;-76
2021/07/25 04:59:25;;;;;;;7.75;4.00;;;22.00;99.90;;;;;;4248098;27;20055;-74
2021/07/25 05:01:32;;;;;;;8.65;4.03;;;22.10;99.90;;;;;;4247741;27;20048;-73
2021/07/25 05:03:39;;;;;;;10.02;3.63;;;22.10;99.90;;;;;;4247621;27;20070;-74
2021/07/25 05:05:43;;;;;;;6.68;3.55;;;22.10;99.90;;;;;;4247732;27;20448;-75
2021/07/25 05:07:46;;;;;;;9.13;3.88;;;22.00;99.90;;;;;;4247505;27;20400;-74
2021/07/25 05:09:50;;;;;;;12.35;4.18;;;22.10;99.90;;;;;;4247534;27;20059;-75
2021/07/25 05:11:59;;;;;;;10.27;3.78;;;22.00;99.90;;;;;;4247062;27;20051;-74
2021/07/25 05:14:09;;;;;;;8.13;3.78;;;22.00;99.90;;;;;;4247440;27;20052;-75
2021/07/25 05:16:21;;;;;;;10.05;4.20;;;22.00;99.90;;;;;;4247532;27;20541;-74
2021/07/25 05:18:34;;;;;;;7.45;4.00;;;21.90;99.90;;;;;;4247411;27;20051;-75
2021/07/25 05:20:43;;;;;;;8.10;3.70;;;21.80;99.90;;;;;;4247500;27;20521;-74
2021/07/25 05:22:56;;;;;;;6.72;3.63;;;21.80;99.90;;;;;;4247332;27;20059;-76
2021/07/25 05:25:00;;;;;;;8.65;3.70;;;21.70;99.90;;;;;;4247803;27;20415;-74
2021/07/25 05:27:05;;;;;;;10.50;3.90;;;21.60;99.90;;;;;;4247153;27;20069;-75
2021/07/25 05:29:11;;;;;;;8.63;3.90;;;21.50;99.90;;;;;;4247385;27;20051;-75
2021/07/25 05:31:14;;;;;;;10.60;3.95;;;21.60;99.90;;;;;;4229920;28;20443;-75
2021/07/25 05:33:17;;;;;;;12.38;3.90;;;21.60;99.90;;;;;;4230033;28;20055;-74
2021/07/25 05:35:20;;;;;;;12.25;4.15;;;21.60;99.90;;;;;;4248136;27;20055;-75
2021/07/25 05:37:23;;;;;;;8.45;3.63;;;21.60;99.90;;;;;;4247978;27;20055;-74
2021/07/25 05:39:26;;;;;;;8.20;4.50;;;21.50;99.90;;;;;;4247616;27;20055;-74
2021/07/25 05:41:29;;;;;;;6.75;3.70;;;21.60;99.90;;;;;;4247358;27;20063;-75
2021/07/25 05:43:34;;;;;;;6.72;3.33;;;21.60;99.90;;;;;;4247039;27;20126;-75
2021/07/25 05:45:37;;;;;;;6.65;3.80;;;21.50;99.90;;;;;;4246531;27;20059;-75
2021/07/25 05:47:40;;;;;;;6.35;3.83;;;21.60;99.90;;;;;;4246697;27;20050;-74
2021/07/25 05:49:43;;;;;;;8.80;3.40;;;21.50;99.90;;;;;;4246898;27;20051;-74
2021/07/25 05:51:46;;;;;;;6.85;3.92;;;21.70;99.90;;;;;;4246850;27;20049;-76
2021/07/25 05:53:49;;;;;;;8.00;4.50;;;21.70;99.90;;;;;;4247551;27;20053;-74
2021/07/25 05:55:52;;;;;;;14.77;4.40;;;21.70;99.90;;;;;;4247050;27;20124;-74
2021/07/25 05:57:56;;;;;;;9.80;4.25;;;21.40;99.90;;;;;;4246599;27;20055;-74
2021/07/25 06:00:01;;;;;;;9.07;4.07;;;21.40;99.90;;;;;;4247028;27;20066;-73
2021/07/25 06:02:04;;;;;;;12.43;4.88;;;21.50;99.90;;;;;;4246526;27;20058;-72
2021/07/25 06:04:07;;;;;;;8.45;4.40;;;21.50;99.90;;;;;;4247158;27;20051;-73
2021/07/25 06:06:11;;;;;;;8.07;4.25;;;21.50;99.90;;;;;;4236641;28;20432;-77
2021/07/25 06:08:14;;;;;;;8.80;4.55;;;21.50;99.90;;;;;;4256097;27;20059;-72
2021/07/25 06:10:17;;;;;;;7.80;4.05;;;21.50;99.90;;;;;;4248665;27;20051;-75
2021/07/25 06:12:21;;;;;;;9.90;4.55;;;21.60;99.90;;;;;;4246376;27;20081;-75
2021/07/25 06:14:26;;;;;;;10.95;4.45;;;21.70;99.90;;;;;;4239264;27;20047;-74
2021/07/25 06:16:33;;;;;;;7.57;4.32;;;21.80;99.90;;;;;;4230704;27;20117;-74
2021/07/25 06:18:36;;;;;;;7.05;4.53;;;22.00;99.90;;;;;;4228622;28;20404;-75
2021/07/25 06:20:39;;;;;;;9.70;4.65;;;22.10;99.90;;;;;;4210915;28;20519;-74
2021/07/25 06:22:44;;;;;;;9.45;4.57;;;21.90;99.90;;;;;;4229427;28;20058;-75
2021/07/25 06:24:47;;;;;;;9.80;4.20;;;21.70;99.90;;;;;;4229409;28;20062;-73
2021/07/25 06:26:52;;;;;;;12.73;4.80;;;21.70;99.90;;;;;;4229822;28;20687;-75
2021/07/25 06:28:55;;;;;;;10.00;4.70;;;21.50;99.90;;;;;;4229807;28;20407;-76
2021/07/25 06:30:57;;;;;;;9.45;5.13;;;21.40;99.90;;;;;;4211676;28;20052;-74
2021/07/25 06:33:03;;;;;;;7.20;4.30;;;21.30;99.90;;;;;;4232539;28;20058;-74
2021/07/25 06:35:09;;;;;;;9.52;4.65;;;21.50;99.90;;;;;;4231870;28;20056;-74
2021/07/25 06:37:12;;;;;;;8.98;5.05;;;21.50;99.90;;;;;;4230649;28;20135;-73
2021/07/25 06:39:15;;;;;;;12.80;4.78;;;21.40;99.90;;;;;;4230193;28;20043;-76
2021/07/25 06:41:18;;;;;;;11.13;5.22;;;21.50;99.90;;;;;;4229619;28;20403;-75
2021/07/25 06:43:22;;;;;;;8.30;4.65;;;21.60;99.90;;;;;;4229623;28;20047;-75
2021/07/25 06:45:26;;;;;;;13.63;4.72;;;21.60;99.90;;;;;;4211704;28;20054;-76
2021/07/25 06:47:29;;;;;;;11.18;5.03;;;21.70;99.90;;;;;;4241772;27;20058;-75
2021/07/25 06:49:34;;;;;;;10.25;5.07;;;21.80;99.90;;;;;;4248657;27;20619;-74
2021/07/25 06:51:37;;;;;;;9.23;5.15;;;21.80;99.90;;;;;;4250081;27;20050;-75
2021/07/25 06:53:40;;;;;;;9.70;4.93;;;21.90;99.90;;;;;;4250212;27;20057;-74
2021/07/25 06:55:44;;;;;;;13.38;6.07;;;22.10;99.90;;;;;;4248632;27;20078;-74
2021/07/25 06:57:47;;;;;;;12.88;5.35;;;22.10;99.90;;;;;;4228436;28;20085;-75
2021/07/25 06:59:50;;;;;;;11.45;5.72;;;22.20;99.90;;;;;;4246656;27;20058;-75
2021/07/25 07:01:53;;;;;;;13.75;5.55;;;22.30;99.90;;;;;;4246339;27;20058;-75
2021/07/25 07:03:56;;;;;;;12.57;5.47;;;22.30;99.90;;;;;;4247095;27;20435;-74
2021/07/25 07:06:05;;;;;;;9.15;5.50;;;22.10;99.90;;;;;;4246531;27;20166;-75
2021/07/25 07:08:08;;;;;;;11.70;5.25;;;22.20;99.90;;;;;;4245769;27;20062;-75
2021/07/25 07:10:12;;;;;;;8.68;5.82;;;22.20;99.90;;;;;;4246019;27;20047;-76
2021/07/25 07:12:15;;;;;;;7.75;5.20;;;22.10;99.90;;;;;;4246382;27;20055;-74
2021/07/25 07:14:18;;;;;;;13.57;6.25;;;22.10;99.90;;;;;;4228233;28;20048;-73
2021/07/25 07:16:21;;;;;;;12.32;5.18;;;22.00;99.90;;;;;;4246844;28;20054;-75
2021/07/25 07:18:24;;;;;;;11.45;5.65;;;22.00;99.90;;;;;;4247299;28;20050;-75
2021/07/25 07:20:27;;;;;;;10.55;5.50;;;21.90;99.90;;;;;;4246508;28;20066;-76
2021/07/25 07:22:32;;;;;;;10.65;5.47;;;22.00;99.90;;;;;;4246171;28;20062;-74
2021/07/25 07:24:35;;;;;;;12.82;5.43;;;22.00;99.90;;;;;;4245995;28;20138;-75
2021/07/25 07:26:38;;;;;;;14.90;6.20;;;22.00;99.90;;;;;;4246318;28;20051;-75
2021/07/25 07:28:41;;;;;;;13.18;6.00;;;21.90;99.90;;;;;;4246110;28;20077;-74
2021/07/25 07:30:44;;;;;;;9.98;5.35;;;22.00;99.90;;;;;;4246378;28;20062;-74
2021/07/25 07:32:49;;;;;;;12.48;6.00;;;22.20;99.90;;;;;;4246475;28;20102;-75
2021/07/25 07:34:52;;;;;;;9.85;5.97;;;22.10;99.90;;;;;;4229456;28;20434;-74
2021/07/25 07:36:55;;;;;;;11.05;5.50;;;22.30;99.90;;;;;;4249828;27;20047;-74
2021/07/25 07:38:59;;;;;;;9.18;5.97;;;22.40;99.90;;;;;;4249718;27;20043;-74
2021/07/25 07:41:02;;;;;;;14.77;6.32;;;22.50;99.90;;;;;;4250107;27;20059;-75
2021/07/25 07:43:06;;;;;;;11.60;5.65;;;22.50;99.90;;;;;;4250321;27;20535;-73
2021/07/25 07:45:10;;;;;;;12.20;5.90;;;22.50;99.90;;;;;;4250156;27;20419;-74
2021/07/25 07:47:13;;;;;;;11.68;5.68;;;22.60;99.90;;;;;;4249700;27;20055;-74
2021/07/25 07:49:16;;;;;;;11.95;5.53;;;22.60;99.90;;;;;;4249959;27;20047;-74
2021/07/25 07:51:19;;;;;;;12.73;6.00;;;22.70;99.90;;;;;;4253625;27;20061;-73
2021/07/25 07:53:22;;;;;;;10.50;5.72;;;22.50;99.90;;;;;;4251456;27;20404;-75
2021/07/25 07:55:27;;;;;;;12.38;5.80;;;22.40;99.90;;;;;;4249445;27;20055;-76
2021/07/25 07:57:31;;;;;;;10.85;5.80;;;22.30;99.90;;;;;;4249410;27;20055;-75
2021/07/25 07:59:34;;;;;;;10.32;5.97;;;22.30;99.90;;;;;;4249459;27;20495;-75
2021/07/25 08:01:37;;;;;;;15.70;6.03;;;22.40;99.90;;;;;;4250548;27;20051;-75
2021/07/25 08:03:40;;;;;;;11.77;6.35;;;22.40;99.90;;;;;;4250412;27;20065;-75
2021/07/25 08:05:45;;;;;;;13.35;6.35;;;22.50;99.90;;;;;;4251313;27;20047;-73
2021/07/25 08:07:48;;;;;;;14.02;5.88;;;22.50;99.90;;;;;;4251930;27;20468;-77
2021/07/25 08:09:51;;;;;;;12.07;5.68;;;22.40;99.90;;;;;;4251684;27;20074;-75
2021/07/25 08:11:56;;;;;;;12.02;5.30;;;22.30;99.90;;;;;;4251464;27;20054;-76
2021/07/25 08:13:59;;;;;;;10.73;5.88;;;22.40;99.90;;;;;;4251860;27;20134;-75
2021/07/25 08:16:03;;;;;;;11.63;5.63;;;22.50;99.90;;;;;;4249787;27;20082;-77
2021/07/25 08:18:08;;;;;;;10.45;5.75;;;22.60;99.90;;;;;;4249549;27;20176;-73
2021/07/25 08:20:11;;;;;;;12.25;5.85;;;22.60;99.90;;;;;;4231792;28;20442;-74
2021/07/25 08:22:17;;;;;;;11.30;5.80;;;22.70;99.90;;;;;;4249561;27;20411;-74
2021/07/25 08:24:20;;;;;;;9.13;5.93;;;22.80;99.90;;;;;;4249806;27;20058;-75
2021/07/25 08:26:23;;;;;;;13.20;6.93;;;22.60;99.90;;;;;;4249438;27;20051;-76
2021/07/25 08:28:28;;;;;;;9.85;5.97;;;22.60;99.90;;;;;;4249196;27;20051;-75
2021/07/25 08:30:32;;;;;;;;;;;22.50;99.90;;;;;;4249263;27;20492;-74
2021/07/25 08:32:35;;;;;;;15.52;6.32;;;22.60;99.90;;;;;;4249134;27;20279;-75
2021/07/25 08:34:38;;;;;;;12.18;6.50;;;22.60;99.90;;;;;;4249061;27;20062;-73
2021/07/25 08:36:43;;;;;;;13.35;6.00;;;22.80;99.90;;;;;;4249061;27;20051;-75
2021/07/25 08:38:46;;;;;;;11.23;5.57;;;22.80;99.90;;;;;;4249675;27;20051;-75
2021/07/25 08:41:07;;;;;;;14.23;6.50;;;22.90;99.90;;;;;;4249794;27;20525;-75
2021/07/25 08:43:13;;;;;;;12.85;6.75;;;22.90;99.90;;;;;;4249732;27;20047;-74
2021/07/25 08:45:17;;;;;;;12.00;6.38;;;22.90;99.90;;;;;;4250181;27;20546;-74
2021/07/25 08:47:33;;;;;;;13.82;6.38;;;22.80;99.90;;;;;;4239117;28;20765;-75
2021/07/25 08:49:48;;;;;;;12.38;6.35;;;22.70;99.90;;;;;;4258000;27;20059;-75
2021/07/25 08:51:59;;;;;;;12.25;6.47;;;22.70;99.90;;;;;;4257976;27;20055;-74
2021/07/25 08:54:04;;;;;;;13.95;6.07;;;22.80;99.90;;;;;;4258782;27;20053;-75
2021/07/25 08:56:10;;;;;;;18.02;6.53;;;22.80;99.90;;;;;;4256972;27;20151;-77
2021/07/25 08:58:14;;;;;;;17.13;6.82;;;22.90;99.90;;;;;;4249604;27;20503;-75
2021/07/25 09:00:21;;;;;;;12.93;6.05;;;23.00;99.90;;;;;;4230185;28;20055;-75
2021/07/25 09:02:26;;;;;;;11.02;6.25;;;22.90;99.80;;;;;;4248382;27;20055;-75
2021/07/25 09:04:29;;;;;;;11.63;6.07;;;22.80;99.90;;;;;;4248336;27;20137;-75
2021/07/25 09:06:41;;;;;;;10.55;6.55;;;22.80;99.90;;;;;;4251244;27;20062;-75
2021/07/25 09:08:44;;;;;;;16.58;6.75;;;22.80;99.90;;;;;;4252414;27;20138;-75
2021/07/25 09:10:49;;;;;;;13.20;7.20;;;22.70;99.90;;;;;;4248489;27;20134;-74
2021/07/25 09:12:55;;;;;;;12.93;6.05;;;22.80;99.90;;;;;;4248673;27;20066;-74
2021/07/25 09:15:01;;;;;;;12.00;6.30;;;23.00;99.90;;;;;;4249079;27;20070;-74
2021/07/25 09:17:05;;;;;;;11.95;6.65;;;23.00;99.90;;;;;;4248747;27;20055;-74
2021/07/25 09:19:09;;;;;;;12.45;6.75;;;23.20;99.90;;;;;;4248921;27;20074;-74
2021/07/25 09:21:12;;;;;;;9.73;6.15;;;23.10;99.90;;;;;;4252636;27;20051;-75
2021/07/25 09:23:17;;;;;;;9.60;6.70;;;23.10;99.90;;;;;;4251281;27;20047;-74
2021/07/25 09:25:31;;;;;;;11.60;6.05;;;23.00;99.90;;;;;;4254202;27;20047;-75
2021/07/25 09:27:34;;;;;;;9.50;5.63;;;23.00;99.90;;;;;;4253929;27;20051;-75
2021/07/25 09:29:37;;;;;;;8.27;5.00;;;22.90;99.90;;;;;;4252071;27;20051;-77
2021/07/25 09:31:40;;;;;;;11.18;5.68;;;22.70;99.90;;;;;;4251070;27;20055;-74
2021/07/25 09:33:45;;;;;;;8.73;5.38;;;22.60;99.90;;;;;;4230554;28;20504;-74
2021/07/25 09:35:48;;;;;;;10.18;5.28;;;22.60;99.90;;;;;;4248202;27;20053;-74
2021/07/25 09:37:51;;;;;;;10.82;6.07;;;22.50;99.90;;;;;;4229984;28;20070;-76
2021/07/25 09:39:55;;;;;;;10.07;5.85;;;22.40;99.90;;;;;;4247936;27;20055;-74
2021/07/25 09:41:59;;;;;;;9.70;5.95;;;22.40;99.90;;;;;;4248285;27;20055;-74
2021/07/25 09:44:08;;;;;;;9.77;5.88;;;22.50;99.90;;;;;;4247524;27;20049;-75
2021/07/25 09:46:11;;;;;;;9.20;5.60;;;22.70;99.90;;;;;;4247758;27;20424;-74
2021/07/25 09:48:16;;;;;;;9.30;5.93;;;22.70;99.90;;;;;;4247797;27;20628;-74
2021/07/25 09:50:27;;;;;;;10.55;4.95;;;22.50;99.90;;;;;;4248025;27;20061;-74
2021/07/25 09:52:31;;;;;;;6.88;4.55;;;22.60;99.90;;;;;;4248132;27;20150;-74
2021/07/25 09:54:35;;;;;;;6.40;4.10;;;22.70;99.90;;;;;;4248579;27;20050;-74
2021/07/25 09:56:38;;;;;;;6.30;4.90;;;22.70;99.90;;;;;;4250380;27;20047;-73
2021/07/25 09:58:42;;;;;;;6.80;4.80;;;22.80;99.90;;;;;;4250773;27;20052;-74
2021/07/25 10:00:46;;;;;;;5.45;4.13;;;22.90;99.90;;;;;;4251546;27;20057;-77
2021/07/25 10:02:50;;;;;;;6.22;4.10;;;22.90;99.90;;;;;;4250556;27;20536;-75
2021/07/25 10:05:08;;;;;;;7.45;3.97;;;22.90;99.90;;;;;;4254690;27;20061;-76
2021/07/25 10:07:23;;;;;;;6.00;3.92;;;22.80;99.90;;;;;;4248608;27;20480;-74
2021/07/25 10:09:27;;;;;;;5.88;3.78;;;22.80;99.90;;;;;;4249475;27;20051;-75
2021/07/25 10:11:30;;;;;;;6.72;4.35;;;22.90;99.90;;;;;;4251630;27;20055;-75
2021/07/25 10:13:34;;;;;;;5.65;4.50;;;22.90;99.90;;;;;;4256249;27;20050;-74
2021/07/25 10:15:37;;;;;;;7.75;4.70;;;23.10;99.90;;;;;;4237018;28;20134;-76
2021/07/25 10:17:42;;;;;;;7.72;4.60;;;23.20;99.90;;;;;;4252971;27;20055;-76
2021/07/25 10:19:46;;;;;;;12.82;5.20;;;23.40;99.90;;;;;;4249164;27;20057;-75
2021/07/25 10:21:50;;;;;;;8.30;5.32;;;23.50;99.90;;;;;;4249346;27;20055;-75
2021/07/25 10:23:56;;;;;;;7.95;4.97;;;23.60;99.90;;;;;;4249912;27;20055;-75
2021/07/25 10:26:01;;;;;;;8.90;5.07;;;23.60;99.90;;;;;;4250175;27;20122;-74
2021/07/25 10:28:05;;;;;;;;;;;23.60;99.90;;;;;;4247899;27;20404;-75
2021/07/25 10:30:10;;;;;;;10.80;5.88;;;23.60;99.90;;;;;;4247635;27;19954;-74
2021/07/25 10:32:17;;;;;;;9.85;5.60;;;23.60;99.90;;;;;;4230569;27;20832;-75
2021/07/25 10:34:21;;;;;;;7.63;5.25;;;23.80;99.90;;;;;;4247836;27;20063;-75
2021/07/25 10:36:25;;;;;;;11.15;5.70;;;23.90;99.90;;;;;;4249093;27;20061;-74
2021/07/25 10:38:28;;;;;;;9.23;5.53;;;23.80;99.90;;;;;;4249966;27;20115;-74
2021/07/25 10:40:33;;;;;;;6.78;5.20;;;23.80;99.90;;;;;;4250269;27;20062;-73
2021/07/25 10:42:39;;;;;;;;;;;23.80;99.90;;;;;;4251845;27;20132;-75
2021/07/25 10:44:43;;;;;;;10.43;5.03;;;24.00;99.90;;;;;;4251708;27;19919;-74
2021/07/25 10:46:46;;;;;;;6.75;5.30;;;24.00;99.90;;;;;;4252561;27;20051;-75